Terminal Aerodrome Forecast
Issued by NWS

Home | Current Version | Previous Version | Text Only | Print | Product List | Glossary On
Versions: 1 2 3 4 5 6 7 8 9 10 11 12 13
308
FTUS42 KTBW 181729
TAFLAL
TAF
KLAL 181729Z 1818/1918 18003KT P6SM FEW020
     FM182000 23006KT P6SM FEW040 FEW250
     FM190800 VRB03KT 5SM BR FEW008
     FM191400 22005KT P6SM FEW020 SCT060
     FM191600 24009KT P6SM VCSH SCT025 BKN060=

USA.gov is the U.S. government's official web portal to all federal, state and local government web resources and services.